sensor_id;sensor_type;location;lat;lon;timestamp;temperature;humidity
74540;SHT31;66042;51.090;-115.340;2023-04-24T00:01:41;19.77;23.01
74540;SHT31;66042;51.090;-115.340;2023-04-24T00:04:08;19.47;23.49
74540;SHT31;66042;51.090;-115.340;2023-04-24T00:06:36;19.18;23.63
74540;SHT31;66042;51.090;-115.340;2023-04-24T00:09:03;18.92;24.24
74540;SHT31;66042;51.090;-115.340;2023-04-24T00:11:31;18.72;24.49
74540;SHT31;66042;51.090;-115.340;2023-04-24T00:13:58;18.42;24.69
74540;SHT31;66042;51.090;-115.340;2023-04-24T00:16:25;18.20;24.92
74540;SHT31;66042;51.090;-115.340;2023-04-24T00:18:52;17.97;25.11
74540;SHT31;66042;51.090;-115.340;2023-04-24T00:21:20;17.78;25.51
74540;SHT31;66042;51.090;-115.340;2023-04-24T00:23:47;17.64;25.90
74540;SHT31;66042;51.090;-115.340;2023-04-24T00:26:14;17.44;26.12
74540;SHT31;66042;51.090;-115.340;2023-04-24T00:28:41;17.30;26.28
74540;SHT31;66042;51.090;-115.340;2023-04-24T00:31:08;17.14;26.59
74540;SHT31;66042;51.090;-115.340;2023-04-24T00:33:36;16.99;26.83
74540;SHT31;66042;51.090;-115.340;2023-04-24T00:36:03;16.85;27.02
74540;SHT31;66042;51.090;-115.340;2023-04-24T00:38:30;16.75;27.42
74540;SHT31;66042;51.090;-115.340;2023-04-24T00:40:57;16.60;27.89
74540;SHT31;66042;51.090;-115.340;2023-04-24T00:43:24;16.31;28.21
74540;SHT31;66042;51.090;-115.340;2023-04-24T00:45:51;16.09;28.48
74540;SHT31;66042;51.090;-115.340;2023-04-24T00:48:18;16.03;28.73
74540;SHT31;66042;51.090;-115.340;2023-04-24T00:50:47;15.93;29.03
74540;SHT31;66042;51.090;-115.340;2023-04-24T00:53:14;15.74;29.50
74540;SHT31;66042;51.090;-115.340;2023-04-24T00:55:41;15.57;30.06
74540;SHT31;66042;51.090;-115.340;2023-04-24T00:58:08;15.44;30.83
74540;SHT31;66042;51.090;-115.340;2023-04-24T01:00:35;15.28;31.35
74540;SHT31;66042;51.090;-115.340;2023-04-24T01:03:03;15.20;31.49
74540;SHT31;66042;51.090;-115.340;2023-04-24T01:05:31;15.10;31.60
74540;SHT31;66042;51.090;-115.340;2023-04-24T01:07:59;15.03;31.69
74540;SHT31;66042;51.090;-115.340;2023-04-24T01:10:29;14.96;31.72
74540;SHT31;66042;51.090;-115.340;2023-04-24T01:13:00;14.84;32.03
74540;SHT31;66042;51.090;-115.340;2023-04-24T01:15:28;14.69;32.37
74540;SHT31;66042;51.090;-115.340;2023-04-24T01:17:55;14.60;32.61
74540;SHT31;66042;51.090;-115.340;2023-04-24T01:20:22;14.50;32.68
74540;SHT31;66042;51.090;-115.340;2023-04-24T01:22:51;14.44;32.77
74540;SHT31;66042;51.090;-115.340;2023-04-24T01:25:22;14.43;32.91
74540;SHT31;66042;51.090;-115.340;2023-04-24T01:27:51;14.40;33.09
74540;SHT31;66042;51.090;-115.340;2023-04-24T01:30:18;14.34;33.10
74540;SHT31;66042;51.090;-115.340;2023-04-24T01:32:45;14.29;33.31
74540;SHT31;66042;51.090;-115.340;2023-04-24T01:35:13;14.19;33.83
74540;SHT31;66042;51.090;-115.340;2023-04-24T01:37:40;14.09;34.18
74540;SHT31;66042;51.090;-115.340;2023-04-24T01:40:07;13.99;34.46
74540;SHT31;66042;51.090;-115.340;2023-04-24T01:42:35;13.91;34.72
74540;SHT31;66042;51.090;-115.340;2023-04-24T01:45:03;13.86;34.91
74540;SHT31;66042;51.090;-115.340;2023-04-24T01:47:31;13.77;35.39
74540;SHT31;66042;51.090;-115.340;2023-04-24T01:49:58;13.62;36.07
74540;SHT31;66042;51.090;-115.340;2023-04-24T01:52:25;13.49;36.70
74540;SHT31;66042;51.090;-115.340;2023-04-24T01:54:54;13.37;37.03
74540;SHT31;66042;51.090;-115.340;2023-04-24T01:57:21;13.28;37.32
74540;SHT31;66042;51.090;-115.340;2023-04-24T01:59:48;13.21;37.57
74540;SHT31;66042;51.090;-115.340;2023-04-24T02:02:17;13.10;38.08
74540;SHT31;66042;51.090;-115.340;2023-04-24T02:04:44;13.01;38.54
74540;SHT31;66042;51.090;-115.340;2023-04-24T02:07:11;12.88;38.93
74540;SHT31;66042;51.090;-115.340;2023-04-24T02:09:38;12.75;39.21
74540;SHT31;66042;51.090;-115.340;2023-04-24T02:12:05;12.65;39.49
74540;SHT31;66042;51.090;-115.340;2023-04-24T02:14:33;12.55;39.68
74540;SHT31;66042;51.090;-115.340;2023-04-24T02:17:00;12.40;40.03
74540;SHT31;66042;51.090;-115.340;2023-04-24T02:19:27;12.32;40.19
74540;SHT31;66042;51.090;-115.340;2023-04-24T02:21:55;12.25;40.59
74540;SHT31;66042;51.090;-115.340;2023-04-24T02:24:22;12.19;40.95
74540;SHT31;66042;51.090;-115.340;2023-04-24T02:26:49;12.12;41.02
74540;SHT31;66042;51.090;-115.340;2023-04-24T02:29:16;12.07;41.10
74540;SHT31;66042;51.090;-115.340;2023-04-24T02:31:43;11.96;41.43
74540;SHT31;66042;51.090;-115.340;2023-04-24T02:34:10;11.85;41.76
74540;SHT31;66042;51.090;-115.340;2023-04-24T02:36:37;11.74;41.96
74540;SHT31;66042;51.090;-115.340;2023-04-24T02:39:04;11.66;42.12
74540;SHT31;66042;51.090;-115.340;2023-04-24T02:41:31;11.63;42.13
74540;SHT31;66042;51.090;-115.340;2023-04-24T02:43:58;11.57;42.19
74540;SHT31;66042;51.090;-115.340;2023-04-24T02:46:26;11.48;42.30
74540;SHT31;66042;51.090;-115.340;2023-04-24T02:48:52;11.43;42.24
74540;SHT31;66042;51.090;-115.340;2023-04-24T02:51:19;11.39;42.38
74540;SHT31;66042;51.090;-115.340;2023-04-24T02:53:46;11.31;42.51
74540;SHT31;66042;51.090;-115.340;2023-04-24T02:56:13;11.24;42.66
74540;SHT31;66042;51.090;-115.340;2023-04-24T02:58:43;11.20;42.58
74540;SHT31;66042;51.090;-115.340;2023-04-24T03:01:10;11.12;43.02
74540;SHT31;66042;51.090;-115.340;2023-04-24T03:03:38;11.02;43.47
74540;SHT31;66042;51.090;-115.340;2023-04-24T03:06:05;10.92;43.78
74540;SHT31;66042;51.090;-115.340;2023-04-24T03:08:33;10.82;43.90
74540;SHT31;66042;51.090;-115.340;2023-04-24T03:11:01;10.78;43.77
74540;SHT31;66042;51.090;-115.340;2023-04-24T03:13:29;10.74;44.06
74540;SHT31;66042;51.090;-115.340;2023-04-24T03:15:56;10.67;44.34
74540;SHT31;66042;51.090;-115.340;2023-04-24T03:18:23;10.55;44.78
74540;SHT31;66042;51.090;-115.340;2023-04-24T03:20:50;10.45;44.99
74540;SHT31;66042;51.090;-115.340;2023-04-24T03:23:18;10.37;45.22
74540;SHT31;66042;51.090;-115.340;2023-04-24T03:25:45;10.31;45.48
74540;SHT31;66042;51.090;-115.340;2023-04-24T03:28:13;10.25;45.61
74540;SHT31;66042;51.090;-115.340;2023-04-24T03:30:42;10.18;45.85
74540;SHT31;66042;51.090;-115.340;2023-04-24T03:33:09;10.09;46.15
74540;SHT31;66042;51.090;-115.340;2023-04-24T03:35:36;9.98;46.32
74540;SHT31;66042;51.090;-115.340;2023-04-24T03:38:03;9.89;46.43
74540;SHT31;66042;51.090;-115.340;2023-04-24T03:40:30;9.83;46.58
74540;SHT31;66042;51.090;-115.340;2023-04-24T03:42:58;9.75;46.55
74540;SHT31;66042;51.090;-115.340;2023-04-24T03:45:25;9.73;46.37
74540;SHT31;66042;51.090;-115.340;2023-04-24T03:47:52;9.73;46.15
74540;SHT31;66042;51.090;-115.340;2023-04-24T03:50:19;9.71;46.31
74540;SHT31;66042;51.090;-115.340;2023-04-24T03:52:46;9.70;46.17
74540;SHT31;66042;51.090;-115.340;2023-04-24T03:55:13;9.67;46.19
74540;SHT31;66042;51.090;-115.340;2023-04-24T03:57:40;9.64;46.23
74540;SHT31;66042;51.090;-115.340;2023-04-24T04:00:08;9.61;46.23
74540;SHT31;66042;51.090;-115.340;2023-04-24T04:02:35;9.57;46.27
74540;SHT31;66042;51.090;-115.340;2023-04-24T04:05:02;9.52;46.42
74540;SHT31;66042;51.090;-115.340;2023-04-24T04:07:29;9.42;46.57
74540;SHT31;66042;51.090;-115.340;2023-04-24T04:09:56;9.34;46.65
74540;SHT31;66042;51.090;-115.340;2023-04-24T04:12:23;9.28;47.06
74540;SHT31;66042;51.090;-115.340;2023-04-24T04:14:50;9.21;47.33
74540;SHT31;66042;51.090;-115.340;2023-04-24T04:17:17;9.14;47.51
74540;SHT31;66042;51.090;-115.340;2023-04-24T04:19:45;9.06;47.59
74540;SHT31;66042;51.090;-115.340;2023-04-24T04:22:12;9.02;47.63
74540;SHT31;66042;51.090;-115.340;2023-04-24T04:24:41;8.98;47.53
74540;SHT31;66042;51.090;-115.340;2023-04-24T04:27:08;8.96;47.62
74540;SHT31;66042;51.090;-115.340;2023-04-24T04:29:36;8.95;47.69
74540;SHT31;66042;51.090;-115.340;2023-04-24T04:32:03;8.90;47.84
74540;SHT31;66042;51.090;-115.340;2023-04-24T04:34:31;8.81;48.21
74540;SHT31;66042;51.090;-115.340;2023-04-24T04:36:58;8.75;48.14
74540;SHT31;66042;51.090;-115.340;2023-04-24T04:39:26;8.72;48.15
74540;SHT31;66042;51.090;-115.340;2023-04-24T04:41:56;8.67;48.17
74540;SHT31;66042;51.090;-115.340;2023-04-24T04:44:23;8.61;48.62
74540;SHT31;66042;51.090;-115.340;2023-04-24T04:46:50;8.53;48.84
74540;SHT31;66042;51.090;-115.340;2023-04-24T04:49:18;8.48;48.92
74540;SHT31;66042;51.090;-115.340;2023-04-24T04:51:47;8.45;49.06
74540;SHT31;66042;51.090;-115.340;2023-04-24T04:54:14;8.41;49.11
74540;SHT31;66042;51.090;-115.340;2023-04-24T04:56:41;8.38;49.32
74540;SHT31;66042;51.090;-115.340;2023-04-24T04:59:08;8.31;49.94
74540;SHT31;66042;51.090;-115.340;2023-04-24T05:01:36;8.19;50.16
74540;SHT31;66042;51.090;-115.340;2023-04-24T05:04:03;8.15;50.05
74540;SHT31;66042;51.090;-115.340;2023-04-24T05:06:30;8.13;50.08
74540;SHT31;66042;51.090;-115.340;2023-04-24T05:08:57;8.12;50.11
74540;SHT31;66042;51.090;-115.340;2023-04-24T05:11:24;8.08;50.54
74540;SHT31;66042;51.090;-115.340;2023-04-24T05:13:52;8.02;50.51
74540;SHT31;66042;51.090;-115.340;2023-04-24T05:16:19;8.00;50.69
74540;SHT31;66042;51.090;-115.340;2023-04-24T05:18:46;7.98;51.01
74540;SHT31;66042;51.090;-115.340;2023-04-24T05:21:13;7.92;51.88
74540;SHT31;66042;51.090;-115.340;2023-04-24T05:23:40;7.89;51.81
74540;SHT31;66042;51.090;-115.340;2023-04-24T05:26:06;7.87;52.03
74540;SHT31;66042;51.090;-115.340;2023-04-24T05:28:36;7.82;51.98
74540;SHT31;66042;51.090;-115.340;2023-04-24T05:31:04;7.80;52.10
74540;SHT31;66042;51.090;-115.340;2023-04-24T05:33:31;7.77;51.85
74540;SHT31;66042;51.090;-115.340;2023-04-24T05:35:58;7.72;51.86
74540;SHT31;66042;51.090;-115.340;2023-04-24T05:38:25;7.69;52.19
74540;SHT31;66042;51.090;-115.340;2023-04-24T05:40:52;7.63;52.68
74540;SHT31;66042;51.090;-115.340;2023-04-24T05:43:19;7.58;52.60
74540;SHT31;66042;51.090;-115.340;2023-04-24T05:45:46;7.55;52.96
74540;SHT31;66042;51.090;-115.340;2023-04-24T05:48:13;7.51;53.23
74540;SHT31;66042;51.090;-115.340;2023-04-24T05:50:41;7.45;53.43
74540;SHT31;66042;51.090;-115.340;2023-04-24T05:53:08;7.41;53.53
74540;SHT31;66042;51.090;-115.340;2023-04-24T05:55:36;7.26;53.86
74540;SHT31;66042;51.090;-115.340;2023-04-24T05:58:03;7.16;53.87
74540;SHT31;66042;51.090;-115.340;2023-04-24T06:00:30;7.08;54.11
74540;SHT31;66042;51.090;-115.340;2023-04-24T06:02:57;7.02;54.08
74540;SHT31;66042;51.090;-115.340;2023-04-24T06:05:26;7.01;53.93
74540;SHT31;66042;51.090;-115.340;2023-04-24T06:07:53;6.98;53.87
74540;SHT31;66042;51.090;-115.340;2023-04-24T06:10:20;6.97;53.82
74540;SHT31;66042;51.090;-115.340;2023-04-24T06:12:47;6.96;53.97
74540;SHT31;66042;51.090;-115.340;2023-04-24T06:15:14;6.92;54.34
74540;SHT31;66042;51.090;-115.340;2023-04-24T06:17:41;6.90;55.14
74540;SHT31;66042;51.090;-115.340;2023-04-24T06:20:08;6.85;55.73
74540;SHT31;66042;51.090;-115.340;2023-04-24T06:22:36;6.72;56.56
74540;SHT31;66042;51.090;-115.340;2023-04-24T06:25:05;6.67;56.38
74540;SHT31;66042;51.090;-115.340;2023-04-24T06:27:33;6.65;56.24
74540;SHT31;66042;51.090;-115.340;2023-04-24T06:30:00;6.65;56.34
74540;SHT31;66042;51.090;-115.340;2023-04-24T06:32:28;6.63;57.00
74540;SHT31;66042;51.090;-115.340;2023-04-24T06:34:56;6.62;57.31
74540;SHT31;66042;51.090;-115.340;2023-04-24T06:37:23;6.61;57.81
74540;SHT31;66042;51.090;-115.340;2023-04-24T06:39:50;6.58;57.84
74540;SHT31;66042;51.090;-115.340;2023-04-24T06:42:17;6.59;58.12
74540;SHT31;66042;51.090;-115.340;2023-04-24T06:44:46;6.59;58.19
74540;SHT31;66042;51.090;-115.340;2023-04-24T06:47:13;6.60;57.80
74540;SHT31;66042;51.090;-115.340;2023-04-24T06:49:41;6.58;58.45
74540;SHT31;66042;51.090;-115.340;2023-04-24T06:52:08;6.53;58.43
74540;SHT31;66042;51.090;-115.340;2023-04-24T06:54:36;6.50;57.88
74540;SHT31;66042;51.090;-115.340;2023-04-24T06:57:03;6.51;57.91
74540;SHT31;66042;51.090;-115.340;2023-04-24T06:59:30;6.51;57.95
74540;SHT31;66042;51.090;-115.340;2023-04-24T07:01:57;6.51;58.42
74540;SHT31;66042;51.090;-115.340;2023-04-24T07:04:24;6.49;58.22
74540;SHT31;66042;51.090;-115.340;2023-04-24T07:06:51;6.53;57.82
74540;SHT31;66042;51.090;-115.340;2023-04-24T07:09:23;6.56;57.62
74540;SHT31;66042;51.090;-115.340;2023-04-24T07:11:51;6.57;57.64
74540;SHT31;66042;51.090;-115.340;2023-04-24T07:14:19;6.57;57.68
74540;SHT31;66042;51.090;-115.340;2023-04-24T07:16:46;6.58;57.50
74540;SHT31;66042;51.090;-115.340;2023-04-24T07:19:14;6.57;57.95
74540;SHT31;66042;51.090;-115.340;2023-04-24T07:21:41;6.55;58.42
74540;SHT31;66042;51.090;-115.340;2023-04-24T07:24:08;6.51;59.57
74540;SHT31;66042;51.090;-115.340;2023-04-24T07:26:36;6.45;60.14
74540;SHT31;66042;51.090;-115.340;2023-04-24T07:29:04;6.41;60.50
74540;SHT31;66042;51.090;-115.340;2023-04-24T07:31:32;6.38;60.01
74540;SHT31;66042;51.090;-115.340;2023-04-24T07:33:59;6.38;59.62
74540;SHT31;66042;51.090;-115.340;2023-04-24T07:36:26;6.36;59.64
74540;SHT31;66042;51.090;-115.340;2023-04-24T07:38:54;6.35;59.44
74540;SHT31;66042;51.090;-115.340;2023-04-24T07:41:24;6.37;59.30
74540;SHT31;66042;51.090;-115.340;2023-04-24T07:43:53;6.38;59.56
74540;SHT31;66042;51.090;-115.340;2023-04-24T07:46:20;6.38;59.04
74540;SHT31;66042;51.090;-115.340;2023-04-24T07:48:46;6.43;59.06
74540;SHT31;66042;51.090;-115.340;2023-04-24T07:51:14;6.44;59.08
74540;SHT31;66042;51.090;-115.340;2023-04-24T07:53:42;6.46;59.12
74540;SHT31;66042;51.090;-115.340;2023-04-24T07:56:10;6.47;58.93
74540;SHT31;66042;51.090;-115.340;2023-04-24T07:58:37;6.49;59.13
74540;SHT31;66042;51.090;-115.340;2023-04-24T08:01:04;6.46;59.36
74540;SHT31;66042;51.090;-115.340;2023-04-24T08:03:32;6.46;59.33
74540;SHT31;66042;51.090;-115.340;2023-04-24T08:05:59;6.43;59.97
74540;SHT31;66042;51.090;-115.340;2023-04-24T08:08:25;6.36;60.17
74540;SHT31;66042;51.090;-115.340;2023-04-24T08:10:52;6.32;60.15
74540;SHT31;66042;51.090;-115.340;2023-04-24T08:13:20;6.32;59.67
74540;SHT31;66042;51.090;-115.340;2023-04-24T08:15:47;6.32;59.65
74540;SHT31;66042;51.090;-115.340;2023-04-24T08:18:14;6.30;59.73
74540;SHT31;66042;51.090;-115.340;2023-04-24T08:20:42;6.29;59.69
74540;SHT31;66042;51.090;-115.340;2023-04-24T08:23:10;6.28;59.42
74540;SHT31;66042;51.090;-115.340;2023-04-24T08:25:37;6.28;59.24
74540;SHT31;66042;51.090;-115.340;2023-04-24T08:28:05;6.29;59.11
74540;SHT31;66042;51.090;-115.340;2023-04-24T08:30:34;6.28;59.36
74540;SHT31;66042;51.090;-115.340;2023-04-24T08:33:01;6.25;59.59
74540;SHT31;66042;51.090;-115.340;2023-04-24T08:35:28;6.26;59.34
74540;SHT31;66042;51.090;-115.340;2023-04-24T08:37:55;6.27;59.11
74540;SHT31;66042;51.090;-115.340;2023-04-24T08:40:23;6.26;59.09
74540;SHT31;66042;51.090;-115.340;2023-04-24T08:42:55;6.24;59.13
74540;SHT31;66042;51.090;-115.340;2023-04-24T08:45:23;6.23;59.16
74540;SHT31;66042;51.090;-115.340;2023-04-24T08:47:54;6.22;59.39
74540;SHT31;66042;51.090;-115.340;2023-04-24T08:50:23;6.18;59.85
74540;SHT31;66042;51.090;-115.340;2023-04-24T08:52:50;6.14;60.40
74540;SHT31;66042;51.090;-115.340;2023-04-24T08:55:19;6.13;60.75
74540;SHT31;66042;51.090;-115.340;2023-04-24T08:57:52;6.10;60.92
74540;SHT31;66042;51.090;-115.340;2023-04-24T09:00:20;6.10;61.31
74540;SHT31;66042;51.090;-115.340;2023-04-24T09:02:52;6.11;61.40
74540;SHT31;66042;51.090;-115.340;2023-04-24T09:05:20;6.14;61.34
74540;SHT31;66042;51.090;-115.340;2023-04-24T09:07:55;6.20;61.03
74540;SHT31;66042;51.090;-115.340;2023-04-24T09:10:23;6.25;60.71
74540;SHT31;66042;51.090;-115.340;2023-04-24T09:12:51;6.28;60.84
74540;SHT31;66042;51.090;-115.340;2023-04-24T09:15:20;6.30;60.85
74540;SHT31;66042;51.090;-115.340;2023-04-24T09:17:47;6.28;61.08
74540;SHT31;66042;51.090;-115.340;2023-04-24T09:20:15;6.23;61.07
74540;SHT31;66042;51.090;-115.340;2023-04-24T09:22:42;6.23;60.74
74540;SHT31;66042;51.090;-115.340;2023-04-24T09:25:11;6.25;60.49
74540;SHT31;66042;51.090;-115.340;2023-04-24T09:27:42;6.26;60.30
74540;SHT31;66042;51.090;-115.340;2023-04-24T09:30:10;6.24;60.59
74540;SHT31;66042;51.090;-115.340;2023-04-24T09:32:38;6.23;60.42
74540;SHT31;66042;51.090;-115.340;2023-04-24T09:35:06;6.22;60.36
74540;SHT31;66042;51.090;-115.340;2023-04-24T09:37:42;6.19;60.61
74540;SHT31;66042;51.090;-115.340;2023-04-24T09:42:46;6.10;60.86
74540;SHT31;66042;51.090;-115.340;2023-04-24T09:45:20;6.07;61.17
74540;SHT31;66042;51.090;-115.340;2023-04-24T09:47:53;5.98;61.92
74540;SHT31;66042;51.090;-115.340;2023-04-24T09:50:21;5.88;62.44
74540;SHT31;66042;51.090;-115.340;2023-04-24T09:52:59;5.81;62.76
74540;SHT31;66042;51.090;-115.340;2023-04-24T09:55:35;5.76;62.70
74540;SHT31;66042;51.090;-115.340;2023-04-24T09:58:10;5.74;62.85
74540;SHT31;66042;51.090;-115.340;2023-04-24T10:00:37;5.73;62.59
74540;SHT31;66042;51.090;-115.340;2023-04-24T10:03:05;5.73;62.45
74540;SHT31;66042;51.090;-115.340;2023-04-24T10:05:34;5.72;62.94
74540;SHT31;66042;51.090;-115.340;2023-04-24T10:08:10;5.73;62.66
74540;SHT31;66042;51.090;-115.340;2023-04-24T10:10:43;5.75;62.39
74540;SHT31;66042;51.090;-115.340;2023-04-24T10:13:12;5.78;62.49
74540;SHT31;66042;51.090;-115.340;2023-04-24T10:15:41;5.80;62.36
74540;SHT31;66042;51.090;-115.340;2023-04-24T10:18:09;5.84;62.22
74540;SHT31;66042;51.090;-115.340;2023-04-24T10:20:38;5.86;62.07
74540;SHT31;66042;51.090;-115.340;2023-04-24T10:23:06;5.89;62.06
74540;SHT31;66042;51.090;-115.340;2023-04-24T10:25:34;5.91;61.84
74540;SHT31;66042;51.090;-115.340;2023-04-24T10:28:02;5.91;61.85
74540;SHT31;66042;51.090;-115.340;2023-04-24T10:30:31;5.90;61.73
74540;SHT31;66042;51.090;-115.340;2023-04-24T10:33:03;5.89;61.79
74540;SHT31;66042;51.090;-115.340;2023-04-24T10:35:36;5.87;61.66
74540;SHT31;66042;51.090;-115.340;2023-04-24T10:38:15;5.84;61.84
74540;SHT31;66042;51.090;-115.340;2023-04-24T10:40:50;5.81;61.77
74540;SHT31;66042;51.090;-115.340;2023-04-24T10:43:17;5.80;61.66
74540;SHT31;66042;51.090;-115.340;2023-04-24T10:46:01;5.75;61.66
74540;SHT31;66042;51.090;-115.340;2023-04-24T10:48:31;5.70;61.74
74540;SHT31;66042;51.090;-115.340;2023-04-24T10:51:00;5.66;61.74
74540;SHT31;66042;51.090;-115.340;2023-04-24T10:53:28;5.61;61.89
74540;SHT31;66042;51.090;-115.340;2023-04-24T10:55:57;5.58;62.40
74540;SHT31;66042;51.090;-115.340;2023-04-24T10:58:40;5.53;62.65
74540;SHT31;66042;51.090;-115.340;2023-04-24T11:03:58;5.49;62.98
74540;SHT31;66042;51.090;-115.340;2023-04-24T11:06:33;5.45;62.80
74540;SHT31;66042;51.090;-115.340;2023-04-24T11:09:06;5.46;62.82
74540;SHT31;66042;51.090;-115.340;2023-04-24T11:11:38;5.47;62.88
74540;SHT31;66042;51.090;-115.340;2023-04-24T11:14:15;5.47;63.13
74540;SHT31;66042;51.090;-115.340;2023-04-24T11:16:43;5.51;63.02
74540;SHT31;66042;51.090;-115.340;2023-04-24T11:19:20;5.56;62.82
74540;SHT31;66042;51.090;-115.340;2023-04-24T11:22:03;5.58;62.86
74540;SHT31;66042;51.090;-115.340;2023-04-24T11:24:49;5.61;62.99
74540;SHT31;66042;51.090;-115.340;2023-04-24T11:27:19;5.60;62.97
74540;SHT31;66042;51.090;-115.340;2023-04-24T11:35:00;5.64;62.55
74540;SHT31;66042;51.090;-115.340;2023-04-24T11:37:33;5.62;62.70
74540;SHT31;66042;51.090;-115.340;2023-04-24T11:40:10;5.57;62.87
74540;SHT31;66042;51.090;-115.340;2023-04-24T11:42:46;5.54;63.07
74540;SHT31;66042;51.090;-115.340;2023-04-24T11:45:15;5.54;63.25
74540;SHT31;66042;51.090;-115.340;2023-04-24T11:47:49;5.50;63.33
74540;SHT31;66042;51.090;-115.340;2023-04-24T11:50:19;5.49;63.28
74540;SHT31;66042;51.090;-115.340;2023-04-24T11:52:49;5.50;63.19
74540;SHT31;66042;51.090;-115.340;2023-04-24T11:57:45;5.45;63.64
74540;SHT31;66042;51.090;-115.340;2023-04-24T12:00:20;5.43;63.70
74540;SHT31;66042;51.090;-115.340;2023-04-24T12:02:49;5.41;63.76
74540;SHT31;66042;51.090;-115.340;2023-04-24T12:05:20;5.40;63.39
74540;SHT31;66042;51.090;-115.340;2023-04-24T12:07:52;5.36;63.43
74540;SHT31;66042;51.090;-115.340;2023-04-24T12:10:21;5.32;63.32
74540;SHT31;66042;51.090;-115.340;2023-04-24T12:12:51;5.29;63.41
74540;SHT31;66042;51.090;-115.340;2023-04-24T12:15:19;5.28;63.38
74540;SHT31;66042;51.090;-115.340;2023-04-24T12:17:48;5.26;63.23
74540;SHT31;66042;51.090;-115.340;2023-04-24T12:20:22;5.27;63.20
74540;SHT31;66042;51.090;-115.340;2023-04-24T12:22:53;5.25;63.25
74540;SHT31;66042;51.090;-115.340;2023-04-24T12:25:23;5.28;63.24
74540;SHT31;66042;51.090;-115.340;2023-04-24T12:27:53;5.28;63.28
74540;SHT31;66042;51.090;-115.340;2023-04-24T12:30:42;5.29;63.38
74540;SHT31;66042;51.090;-115.340;2023-04-24T12:33:20;5.30;63.51
74540;SHT31;66042;51.090;-115.340;2023-04-24T12:35:54;5.30;63.61
74540;SHT31;66042;51.090;-115.340;2023-04-24T12:38:25;5.31;63.58
74540;SHT31;66042;51.090;-115.340;2023-04-24T12:41:08;5.33;63.66
74540;SHT31;66042;51.090;-115.340;2023-04-24T12:43:38;5.34;63.70
74540;SHT31;66042;51.090;-115.340;2023-04-24T12:46:17;5.33;64.09
74540;SHT31;66042;51.090;-115.340;2023-04-24T12:48:45;5.34;64.50
74540;SHT31;66042;51.090;-115.340;2023-04-24T12:51:12;5.32;64.98
74540;SHT31;66042;51.090;-115.340;2023-04-24T12:53:40;5.29;65.31
74540;SHT31;66042;51.090;-115.340;2023-04-24T12:56:07;5.26;65.56
74540;SHT31;66042;51.090;-115.340;2023-04-24T12:58:34;5.22;65.85
74540;SHT31;66042;51.090;-115.340;2023-04-24T13:01:02;5.20;66.26
74540;SHT31;66042;51.090;-115.340;2023-04-24T13:03:29;5.16;66.36
74540;SHT31;66042;51.090;-115.340;2023-04-24T13:05:56;5.14;66.60
74540;SHT31;66042;51.090;-115.340;2023-04-24T13:08:23;5.13;66.63
74540;SHT31;66042;51.090;-115.340;2023-04-24T13:10:50;5.14;66.63
74540;SHT31;66042;51.090;-115.340;2023-04-24T13:13:19;5.20;66.25
74540;SHT31;66042;51.090;-115.340;2023-04-24T13:15:45;5.25;66.05
74540;SHT31;66042;51.090;-115.340;2023-04-24T13:18:12;5.31;65.75
74540;SHT31;66042;51.090;-115.340;2023-04-24T13:20:39;5.38;65.61
74540;SHT31;66042;51.090;-115.340;2023-04-24T13:23:07;5.45;65.53
74540;SHT31;66042;51.090;-115.340;2023-04-24T13:25:34;5.51;65.61
74540;SHT31;66042;51.090;-115.340;2023-04-24T13:28:04;5.57;65.51
74540;SHT31;66042;51.090;-115.340;2023-04-24T13:30:31;5.59;65.59
74540;SHT31;66042;51.090;-115.340;2023-04-24T13:32:58;5.61;65.38
74540;SHT31;66042;51.090;-115.340;2023-04-24T13:35:25;5.66;65.26
74540;SHT31;66042;51.090;-115.340;2023-04-24T13:37:53;5.64;65.40
74540;SHT31;66042;51.090;-115.340;2023-04-24T13:40:20;5.67;65.26
74540;SHT31;66042;51.090;-115.340;2023-04-24T13:42:47;5.69;65.38
74540;SHT31;66042;51.090;-115.340;2023-04-24T13:45:14;5.72;65.67
74540;SHT31;66042;51.090;-115.340;2023-04-24T13:47:41;5.73;65.37
74540;SHT31;66042;51.090;-115.340;2023-04-24T13:50:08;5.77;65.32
74540;SHT31;66042;51.090;-115.340;2023-04-24T13:52:35;5.78;65.45
74540;SHT31;66042;51.090;-115.340;2023-04-24T13:55:02;5.79;65.72
74540;SHT31;66042;51.090;-115.340;2023-04-24T13:57:29;5.82;65.58
74540;SHT31;66042;51.090;-115.340;2023-04-24T13:59:57;5.85;65.20
74540;SHT31;66042;51.090;-115.340;2023-04-24T14:02:29;5.88;65.56
74540;SHT31;66042;51.090;-115.340;2023-04-24T14:04:56;5.88;65.96
74540;SHT31;66042;51.090;-115.340;2023-04-24T14:07:23;5.89;65.99
74540;SHT31;66042;51.090;-115.340;2023-04-24T14:09:51;5.90;66.31
74540;SHT31;66042;51.090;-115.340;2023-04-24T14:12:18;5.95;66.16
74540;SHT31;66042;51.090;-115.340;2023-04-24T14:14:45;6.01;66.22
74540;SHT31;66042;51.090;-115.340;2023-04-24T14:17:16;6.07;66.41
74540;SHT31;66042;51.090;-115.340;2023-04-24T14:19:42;6.12;66.34
74540;SHT31;66042;51.090;-115.340;2023-04-24T14:22:09;6.18;66.12
74540;SHT31;66042;51.090;-115.340;2023-04-24T14:24:36;6.22;66.22
74540;SHT31;66042;51.090;-115.340;2023-04-24T14:27:03;6.26;66.19
74540;SHT31;66042;51.090;-115.340;2023-04-24T14:29:31;6.31;65.98
74540;SHT31;66042;51.090;-115.340;2023-04-24T14:31:58;6.33;66.28
74540;SHT31;66042;51.090;-115.340;2023-04-24T14:34:26;6.32;66.38
74540;SHT31;66042;51.090;-115.340;2023-04-24T14:36:52;6.31;66.46
74540;SHT31;66042;51.090;-115.340;2023-04-24T14:39:20;6.32;66.57
74540;SHT31;66042;51.090;-115.340;2023-04-24T14:41:47;6.32;66.66
74540;SHT31;66042;51.090;-115.340;2023-04-24T14:44:14;6.32;66.55
74540;SHT31;66042;51.090;-115.340;2023-04-24T14:46:41;6.36;66.38
74540;SHT31;66042;51.090;-115.340;2023-04-24T14:49:08;6.42;66.43
74540;SHT31;66042;51.090;-115.340;2023-04-24T14:51:35;6.44;66.61
74540;SHT31;66042;51.090;-115.340;2023-04-24T14:54:03;6.45;66.72
74540;SHT31;66042;51.090;-115.340;2023-04-24T14:56:30;6.48;66.66
74540;SHT31;66042;51.090;-115.340;2023-04-24T14:58:57;6.54;66.48
74540;SHT31;66042;51.090;-115.340;2023-04-24T15:01:24;6.58;66.53
74540;SHT31;66042;51.090;-115.340;2023-04-24T15:03:51;6.61;66.52
74540;SHT31;66042;51.090;-115.340;2023-04-24T15:06:18;6.68;66.57
74540;SHT31;66042;51.090;-115.340;2023-04-24T15:08:45;6.75;66.55
74540;SHT31;66042;51.090;-115.340;2023-04-24T15:11:13;6.83;66.49
74540;SHT31;66042;51.090;-115.340;2023-04-24T15:13:40;6.90;66.07
74540;SHT31;66042;51.090;-115.340;2023-04-24T15:16:08;6.96;65.93
74540;SHT31;66042;51.090;-115.340;2023-04-24T15:18:34;7.06;65.68